Madeline — WDF2406 — position and weather

sailwx.info

Track history (hours):
 
Tides and Currents Weather Stations Pressure Air Temp Water Temp Dewpoint Dewpoint Depression Visibility Wind Speed Wind Dir Waves Ship Positions

Madeline

Owner: Enterprise Marine Services, LLC, San Antonio, TX. More information available from US FCC via Universal Licensing System and Coast Guard Vessel Documentation Center.

Last reported at 2015-May-29 15:18 UTC. Time now 2015-May-30 16:27 UTC.
Position N 29°54' W 090°07'.

Length 30 m; draft 8 m.

Type: Tug. MMSI: 367350460.

Date/timePositionNaut miles runAvg speedWind from/ knotsBaromVisibWave heightAir tempDewpointWater temp
2015-May-29 15:18N 29°54' W 090°07'0 0.0
2015-May-29 12:31N 29°54' W 090°07'0 0.0
2015-May-29 11:18N 29°54' W 090°07'0 0.0
2015-May-29 10:30N 29°54' W 090°07'0 0.0
2015-May-29 06:06N 29°54' W 090°07'0 0.0
2015-May-29 04:12N 29°54' W 090°07'0 0.0
2015-May-29 01:30N 29°54' W 090°07'0 0.0
2015-May-29 00:31N 29°54' W 090°07'0 0.0
2015-May-28 23:25N 29°54' W 090°07'0 0.0
2015-May-28 22:31N 29°54' W 090°07'0 0.0
2015-May-28 21:33N 29°54' W 090°07'0 0.1
2015-May-28 20:17N 29°54' W 090°07'0 0.0
2015-May-28 19:33N 29°54' W 090°07'0 0.0
2015-May-28 18:32N 29°54' W 090°07'0 0.0
2015-May-28 17:32N 29°54' W 090°07'0 0.0
2015-May-28 16:33N 29°54' W 090°07'0 0.0
2015-May-28 15:32N 29°54' W 090°07'0 0.0
2015-May-28 14:32N 29°54' W 090°07'0 0.1
2015-May-28 13:33N 29°54' W 090°07'0 0.0
2015-May-28 12:30N 29°54' W 090°07'0 0.0
2015-May-28 11:33N 29°54' W 090°07'0 0.0
2015-May-28 10:31N 29°54' W 090°07'0 0.0
2015-May-28 09:29N 29°54' W 090°07'0 0.4
2015-May-28 08:29N 29°54' W 090°07'14 1.2
2015-May-27 21:23N 29°41' W 090°11'19 4.8
2015-May-27 17:33N 29°34' W 090°31'5 5.2
2015-May-27 16:33N 29°35' W 090°37'4 4.2
2015-May-27 15:33N 29°36' W 090°41'3 3.0
2015-May-27 14:34N 29°34' W 090°43'2 1.7
2015-May-27 13:33N 29°33' W 090°45'0 0.3
2015-May-27 12:34N 29°33' W 090°45'  
Track history (hours):
 
Tides and Currents Weather Stations Pressure Air Temp Water Temp Dewpoint Dewpoint Depression Visibility Wind Speed Wind Dir Waves Ship Positions

Madeline

Owner: Enterprise Marine Services, LLC, San Antonio, TX. More information available from US FCC via Universal Licensing System and Coast Guard Vessel Documentation Center.

Last reported at 2015-May-29 15:18 UTC. Time now 2015-May-30 16:27 UTC.
Position N 29°54' W 090°07'.

Length 30 m; draft 8 m.

Type: Tug. MMSI: 367350460.

Date/timePositionNaut miles runAvg speedWind from/ knotsBaromVisibWave heightAir tempDewpointWater temp
2015-May-29 15:18N 29°54' W 090°07'0 0.0
2015-May-29 12:31N 29°54' W 090°07'0 0.0
2015-May-29 11:18N 29°54' W 090°07'0 0.0
2015-May-29 10:30N 29°54' W 090°07'0 0.0
2015-May-29 06:06N 29°54' W 090°07'0 0.0
2015-May-29 04:12N 29°54' W 090°07'0 0.0
2015-May-29 01:30N 29°54' W 090°07'0 0.0
2015-May-29 00:31N 29°54' W 090°07'0 0.0
2015-May-28 23:25N 29°54' W 090°07'0 0.0
2015-May-28 22:31N 29°54' W 090°07'0 0.0
2015-May-28 21:33N 29°54' W 090°07'0 0.1
2015-May-28 20:17N 29°54' W 090°07'0 0.0
2015-May-28 19:33N 29°54' W 090°07'0 0.0
2015-May-28 18:32N 29°54' W 090°07'0 0.0
2015-May-28 17:32N 29°54' W 090°07'0 0.0
2015-May-28 16:33N 29°54' W 090°07'0 0.0
2015-May-28 15:32N 29°54' W 090°07'0 0.0
2015-May-28 14:32N 29°54' W 090°07'0 0.1
2015-May-28 13:33N 29°54' W 090°07'0 0.0
2015-May-28 12:30N 29°54' W 090°07'0 0.0
2015-May-28 11:33N 29°54' W 090°07'0 0.0
2015-May-28 10:31N 29°54' W 090°07'0 0.0
2015-May-28 09:29N 29°54' W 090°07'0 0.4
2015-May-28 08:29N 29°54' W 090°07'14 1.2
2015-May-27 21:23N 29°41' W 090°11'19 4.8
2015-May-27 17:33N 29°34' W 090°31'5 5.2
2015-May-27 16:33N 29°35' W 090°37'4 4.2
2015-May-27 15:33N 29°36' W 090°41'3 3.0
2015-May-27 14:34N 29°34' W 090°43'2 1.7
2015-May-27 13:33N 29°33' W 090°45'0 0.3
2015-May-27 12:34N 29°33' W 090°45'  

Dump ship's entire track history